Time;durP1;ratioP1;P1;durP2;ratioP2;P2;SDS_P1;SDS_P2;PMS_P1;PMS_P2;Temp;Humidity;BMP_temperature;BMP_pressure;BME280_temperature;BME280_humidity;BME280_pressure;Samples;Min_cycle;Max_cycle;Signal;HPM_P1;HPM_P2
2022/03/12 00:01:58;;;;;;;5.82;3.20;;;;;;;-1.42;83.82;99866.53;5044706;28;20077;-77
2022/03/12 00:04:30;;;;;;;3.20;2.42;;;;;;;-1.61;83.88;99837.03;5044235;28;20046;-77
2022/03/12 00:07:00;;;;;;;7.65;4.05;;;;;;;-1.39;83.94;99867.50;5044183;28;20052;-77
2022/03/12 00:09:33;;;;;;;4.78;3.50;;;;;;;-1.31;83.64;99868.56;5044215;28;20241;-78
2022/03/12 00:12:04;;;;;;;3.17;2.45;;;;;;;-1.24;82.89;99859.34;5043951;28;20108;-78
2022/03/12 00:14:37;;;;;;;7.18;3.72;;;;;;;-1.32;83.27;99858.28;5043814;28;20116;-78
2022/03/12 00:17:07;;;;;;;5.28;3.33;;;;;;;-1.28;82.99;99861.78;5043885;28;20045;-79
2022/03/12 00:19:38;;;;;;;6.28;2.88;;;;;;;-1.42;82.55;99859.75;5043712;28;20045;-79
2022/03/12 00:22:09;;;;;;;5.78;2.72;;;;;;;-1.48;82.79;99866.41;5043510;28;20046;-79
2022/03/12 00:24:43;;;;;;;4.43;2.90;;;;;;;-1.41;82.92;99887.09;5044086;28;20337;-79
2022/03/12 00:27:16;;;;;;;3.72;2.60;;;;;;;-1.63;82.67;99865.16;5043975;28;20045;-79
2022/03/12 00:29:48;;;;;;;6.15;3.15;;;;;;;-1.53;83.36;99891.91;5043408;28;20056;-78
2022/03/12 00:32:19;;;;;;;5.03;3.05;;;;;;;-1.55;82.85;99883.31;5043419;28;20418;-78
2022/03/12 00:34:49;;;;;;;3.53;2.72;;;;;;;-1.54;82.80;99895.31;5043971;28;20081;-78
2022/03/12 00:37:21;;;;;;;4.28;2.50;;;;;;;-1.52;82.99;99888.53;5026315;28;20045;-78
2022/03/12 00:39:53;;;;;;;5.57;2.65;;;;;;;-1.67;83.15;99898.34;5043589;28;20045;-79
2022/03/12 00:42:24;;;;;;;6.55;3.00;;;;;;;-1.67;83.19;99903.47;5043525;28;20076;-79
2022/03/12 00:44:55;;;;;;;4.35;2.60;;;;;;;-1.65;83.35;99901.81;5042972;28;20112;-78
2022/03/12 00:47:26;;;;;;;4.95;2.60;;;;;;;-1.69;83.28;99912.84;5042819;28;20312;-78
2022/03/12 00:49:57;;;;;;;4.72;2.70;;;;;;;-1.73;82.96;99905.03;5042860;28;20061;-78
2022/03/12 00:52:27;;;;;;;4.45;2.45;;;;;;;-1.61;83.08;99919.03;5043336;28;20172;-78
2022/03/12 00:55:00;;;;;;;3.30;2.90;;;;;;;-1.56;82.72;99922.56;5043319;28;20053;-78
2022/03/12 00:57:30;;;;;;;4.40;2.53;;;;;;;-1.65;82.60;99912.06;5043182;28;20052;-78
2022/03/12 01:00:02;;;;;;;5.63;3.22;;;;;;;-1.67;82.89;99913.72;5043055;28;20109;-79
2022/03/12 01:02:32;;;;;;;7.82;3.72;;;;;;;-1.69;83.27;99915.41;5042848;28;20117;-78
2022/03/12 01:05:03;;;;;;;2.92;2.13;;;;;;;-1.62;83.00;99919.84;5042918;28;20084;-78
2022/03/12 01:07:34;;;;;;;4.68;2.53;;;;;;;-1.76;82.40;99907.53;5042928;28;20072;-78
2022/03/12 01:10:07;;;;;;;4.47;3.30;;;;;;;-1.66;82.64;99928.28;5042721;28;20083;-78
2022/03/12 01:12:38;;;;;;;5.47;3.30;;;;;;;-1.65;82.47;99932.56;5042660;28;20245;-78
2022/03/12 01:15:10;;;;;;;4.70;3.25;;;;;;;-1.61;82.16;99934.41;5042807;28;20136;-78
2022/03/12 01:17:42;;;;;;;6.45;3.75;;;;;;;-1.73;82.31;99925.53;5042770;28;20069;-78
2022/03/12 01:20:13;;;;;;;7.57;2.90;;;;;;;-1.83;81.82;99923.53;5042536;28;20053;-78
2022/03/12 01:22:43;;;;;;;6.45;3.30;;;;;;;-1.77;82.38;99922.88;5042580;28;20076;-79
2022/03/12 01:25:16;;;;;;;3.65;2.85;;;;;;;-1.76;81.96;99928.00;5042323;28;20057;-79
2022/03/12 01:27:47;;;;;;;5.93;3.42;;;;;;;-1.73;82.01;99925.53;5042406;28;20369;-79
2022/03/12 01:30:26;;;;;;;5.13;3.40;;;;;;;-1.68;82.28;99937.59;5042700;28;20124;-79
2022/03/12 01:32:57;;;;;;;5.00;2.97;;;;;;;-1.74;82.23;99918.69;5042112;28;20356;-79
2022/03/12 01:35:28;;;;;;;7.30;3.00;;;;;;;-1.57;82.24;99941.34;5042192;28;20049;-79
2022/03/12 01:37:59;;;;;;;7.18;3.78;;;;;;;-1.56;82.51;99933.69;5042161;28;20053;-79
2022/03/12 01:40:32;;;;;;;5.55;2.90;;;;;;;-1.46;81.38;99934.81;5042195;28;20378;-79
2022/03/12 01:43:03;;;;;;;4.95;2.95;;;;;;;-1.33;81.27;99936.84;5042410;28;20045;-79
2022/03/12 01:45:36;;;;;;;10.45;3.55;;;;;;;-1.21;80.80;99930.31;5042240;28;20053;-80
2022/03/12 01:48:09;;;;;;;7.13;3.08;;;;;;;-1.88;80.79;99855.97;5041857;28;20108;-79
2022/03/12 01:50:41;;;;;;;5.22;3.00;;;;;;;-1.21;81.11;99961.09;5042184;28;20054;-79
2022/03/12 01:53:12;;;;;;;4.68;3.38;;;;;;;-1.39;80.74;99911.06;5041779;28;20045;-80
2022/03/12 01:55:45;;;;;;;6.30;3.28;;;;;;;-1.28;80.60;99949.78;5041911;28;20101;-79
2022/03/12 01:58:16;;;;;;;5.50;3.38;;;;;;;-1.33;80.95;99961.63;5040863;28;20104;-79
2022/03/12 02:00:49;;;;;;;5.22;2.70;;;;;;;-1.42;81.07;99967.38;5041980;28;20049;-79
2022/03/12 02:03:28;;;;;;;5.03;2.92;;;;;;;-1.98;81.03;99877.03;5041960;28;20061;-80
2022/03/12 02:05:59;;;;;;;4.20;3.08;;;;;;;-1.49;81.18;99975.72;5041871;28;20061;-80
2022/03/12 02:08:30;;;;;;;5.60;3.58;;;;;;;-1.46;81.10;99965.56;5041837;28;20057;-80
2022/03/12 02:11:02;;;;;;;7.07;3.58;;;;;;;-1.41;81.06;99963.97;5041689;28;20076;-80
2022/03/12 02:13:35;;;;;;;5.80;3.80;;;;;;;-1.42;80.72;99964.81;5041778;28;20109;-80
2022/03/12 02:16:08;;;;;;;3.83;2.60;;;;;;;-1.45;80.43;99971.53;5041449;28;20045;-80
2022/03/12 02:18:40;;;;;;;6.28;3.28;;;;;;;-1.44;80.68;99971.59;5041650;28;20083;-80
2022/03/12 02:21:11;;;;;;;4.07;3.10;;;;;;;-1.32;79.70;99971.94;5041529;28;20076;-80
2022/03/12 02:23:51;;;;;;;5.32;3.08;;;;;;;-1.52;78.90;99883.41;5041711;28;20045;-79
2022/03/12 02:26:21;;;;;;;4.55;2.45;;;;;;;-0.82;78.12;99955.22;5041807;28;20061;-79
2022/03/12 02:28:52;;;;;;;4.28;3.20;;;;;;;-0.78;77.48;99975.00;5041716;28;20067;-79
2022/03/12 02:31:26;;;;;;;7.85;4.53;;;;;;;-1.34;76.60;99863.38;5041702;28;20112;-79
2022/03/12 02:34:02;;;;;;;4.78;3.03;;;;;;;-0.65;76.67;99984.72;5041971;28;20049;-79
2022/03/12 02:36:33;;;;;;;5.53;3.05;;;;;;;-0.67;76.29;99981.28;5041762;28;20322;-79
2022/03/12 02:39:06;;;;;;;5.10;3.33;;;;;;;-0.74;76.12;99980.25;5041540;28;20041;-79
2022/03/12 02:41:37;;;;;;;8.70;3.60;;;;;;;-0.81;76.30;99982.63;5041477;28;20037;-79
2022/03/12 02:44:10;;;;;;;4.72;2.90;;;;;;;-0.92;76.83;99970.41;5041644;28;20045;-79
2022/03/12 02:46:42;;;;;;;5.07;3.10;;;;;;;-1.01;76.81;99980.41;5041494;28;20088;-79
2022/03/12 02:49:13;;;;;;;5.72;2.90;;;;;;;-1.06;76.62;99966.59;5041379;28;20111;-79
2022/03/12 02:51:44;;;;;;;4.65;3.05;;;;;;;-1.03;77.51;99974.38;5041468;28;20138;-79
2022/03/12 02:54:16;;;;;;;5.25;3.10;;;;;;;-1.12;76.49;99961.34;5041497;28;20049;-80
2022/03/12 02:56:49;;;;;;;3.75;2.70;;;;;;;-1.09;76.82;99966.53;5041779;28;20045;-84
2022/03/12 02:59:20;;;;;;;5.03;2.72;;;;;;;-1.22;76.74;99920.88;5041572;28;20045;-86
2022/03/12 03:01:51;;;;;;;5.50;2.80;;;;;;;-0.92;76.36;99970.41;5041576;28;20088;-85
2022/03/12 03:04:22;;;;;;;7.43;3.03;;;;;;;-0.93;76.50;99971.22;5041231;28;20057;-82
2022/03/12 03:06:53;;;;;;;5.18;2.92;;;;;;;-0.92;76.79;99978.09;5041077;28;20088;-81
2022/03/12 03:09:25;;;;;;;4.22;2.60;;;;;;;-1.04;76.88;99980.34;5042174;28;20326;-81
2022/03/12 03:11:57;;;;;;;5.90;3.17;;;;;;;-1.17;77.32;99952.66;5044726;28;20116;-80
2022/03/12 03:14:27;;;;;;;4.75;2.97;;;;;;;-1.07;76.63;99987.97;5044985;28;20052;-81
2022/03/12 03:17:00;;;;;;;5.13;3.10;;;;;;;-1.01;76.90;99974.41;5044899;28;20045;-81
2022/03/12 03:19:31;;;;;;;4.38;2.90;;;;;;;-1.17;76.98;99962.91;5044939;28;20080;-80
2022/03/12 03:22:04;;;;;;;6.93;2.80;;;;;;;-1.15;76.81;99992.88;5044851;28;20108;-80
2022/03/12 03:24:36;;;;;;;3.85;2.45;;;;;;;-1.20;77.48;99986.78;5044768;28;20112;-80
2022/03/12 03:27:08;;;;;;;4.97;3.10;;;;;;;-1.24;77.70;100002.03;5044650;28;20099;-81
2022/03/12 03:29:39;;;;;;;6.32;2.83;;;;;;;-1.41;78.08;99989.63;5044849;28;20228;-84
2022/03/12 03:32:10;;;;;;;4.88;3.08;;;;;;;-1.44;78.54;99994.66;5044835;28;20108;-84
2022/03/12 03:34:41;;;;;;;4.43;2.90;;;;;;;-1.47;79.22;99968.97;5044771;28;20056;-84
2022/03/12 03:37:12;;;;;;;5.20;3.58;;;;;;;-1.65;78.54;99953.06;5044614;28;20112;-83
2022/03/12 03:39:44;;;;;;;5.72;2.95;;;;;;;-1.68;78.84;99993.97;5044557;28;20046;-84
2022/03/12 03:42:22;;;;;;;4.57;2.75;;;;;;;-1.77;78.75;99980.09;5044010;28;20045;-83
2022/03/12 03:44:57;;;;;;;5.30;3.53;;;;;;;-1.64;78.40;99995.81;5044121;28;20345;-83
2022/03/12 03:47:28;;;;;;;5.75;2.95;;;;;;;-1.55;78.66;100001.16;5044213;28;20053;-82
2022/03/12 03:49:59;;;;;;;8.20;3.13;;;;;;;-1.55;78.80;100011.41;5044302;28;20068;-82
2022/03/12 03:52:29;;;;;;;9.63;3.55;;;;;;;-1.52;78.68;100016.66;5044275;28;20057;-82
2022/03/12 03:55:02;;;;;;;5.53;3.50;;;;;;;-1.75;78.01;100001.50;5044282;28;20245;-81
2022/03/12 03:57:32;;;;;;;8.27;3.22;;;;;;;-1.62;78.50;100022.31;5044469;28;20244;-81
2022/03/12 04:00:04;;;;;;;5.18;3.20;;;;;;;-1.70;79.08;100013.53;5044221;28;20053;-81
2022/03/12 04:02:36;;;;;;;4.07;2.53;;;;;;;-1.66;78.64;100029.06;5044133;28;20045;-81
2022/03/12 04:05:08;;;;;;;6.03;3.17;;;;;;;-1.60;78.88;100033.47;5044128;28;20053;-81
2022/03/12 04:07:38;;;;;;;3.58;2.80;;;;;;;-1.60;78.63;100056.53;5044013;28;20333;-81
2022/03/12 04:10:11;;;;;;;5.80;3.80;;;;;;;-1.79;78.71;100042.34;5044214;28;20045;-81
2022/03/12 04:12:42;;;;;;;8.27;2.90;;;;;;;-1.92;78.45;100051.34;5043902;28;20121;-80
2022/03/12 04:15:13;;;;;;;4.90;3.05;;;;;;;-1.84;78.76;100049.88;5044225;28;20057;-80
2022/03/12 04:17:45;;;;;;;4.38;2.90;;;;;;;-1.71;78.69;100075.84;5043694;28;20045;-80
2022/03/12 04:20:18;;;;;;;5.43;2.63;;;;;;;-1.79;79.14;100073.06;5043018;28;20383;-80
2022/03/12 04:22:50;;;;;;;4.88;3.08;;;;;;;-1.78;79.39;100085.91;5043346;28;20077;-80
2022/03/12 04:25:23;;;;;;;7.35;3.20;;;;;;;-1.85;79.42;100078.84;5043101;28;20052;-81
2022/03/12 04:27:54;;;;;;;5.40;3.17;;;;;;;-1.95;79.83;100087.06;5043017;28;20248;-83
2022/03/12 04:30:25;;;;;;;3.85;2.65;;;;;;;-1.97;79.00;100088.75;5037874;28;20080;-81
2022/03/12 04:32:56;;;;;;;4.90;2.70;;;;;;;-1.91;79.64;100114.53;5042833;28;20058;-82
2022/03/12 04:35:27;;;;;;;6.18;3.33;;;;;;;-2.05;80.11;100102.97;5042176;28;20120;-81
2022/03/12 04:37:57;;;;;;;7.80;3.00;;;;;;;-2.08;79.99;100095.22;5041939;28;20121;-81
2022/03/12 04:40:32;;;;;;;4.97;2.67;;;;;;;-2.13;80.30;100096.75;5042528;28;20065;-80
2022/03/12 04:43:07;;;;;;;4.38;3.30;;;;;;;-2.01;80.81;100102.25;5042606;28;20063;-82
2022/03/12 04:45:38;;;;;;;12.40;3.42;;;;;;;-1.95;80.44;100117.81;5042369;28;20073;-84
2022/03/12 04:48:10;;;;;;;8.85;3.35;;;;;;;-1.87;80.30;100131.75;5042379;28;20053;-82
2022/03/12 04:50:41;;;;;;;4.70;3.28;;;;;;;-1.97;78.93;100120.34;5042379;28;20084;-83
2022/03/12 04:53:13;;;;;;;5.95;3.30;;;;;;;-2.00;79.25;100134.72;5042417;28;20113;-82
2022/03/12 04:55:46;;;;;;;4.50;2.85;;;;;;;-2.04;79.18;100122.66;5042357;28;20053;-82
2022/03/12 04:58:17;;;;;;;5.20;2.72;;;;;;;-2.15;79.15;100118.88;5042498;28;20113;-83
2022/03/12 05:00:48;;;;;;;6.93;3.75;;;;;;;-2.05;79.15;100136.25;5042407;28;20108;-81
2022/03/12 05:03:21;;;;;;;7.30;3.55;;;;;;;-2.36;78.80;100098.56;5042572;28;20099;-81
2022/03/12 05:05:54;;;;;;;5.75;2.65;;;;;;;-2.84;78.98;100061.19;5042148;28;20055;-83
2022/03/12 05:08:26;;;;;;;5.30;3.35;;;;;;;-2.28;79.31;100138.06;5038455;28;20113;-80
2022/03/12 05:11:02;;;;;;;5.13;2.78;;;;;;;-2.52;79.47;100107.41;5042219;28;20113;-86
2022/03/12 05:17:26;;;;;;;4.80;3.30;;;;;;;-2.83;80.32;100111.47;4970007;28;20075;-82
2022/03/12 05:19:57;;;;;;;4.38;2.75;;;;;;;-2.42;80.72;100160.63;4972136;28;20381;-85
2022/03/12 05:22:30;;;;;;;4.00;2.97;;;;;;;-2.38;80.99;100172.72;4974759;28;20110;-84
2022/03/12 05:25:01;;;;;;;5.80;3.17;;;;;;;-2.62;81.08;100155.72;4973034;28;20102;-84
2022/03/12 05:27:36;;;;;;;6.63;3.53;;;;;;;-2.40;81.30;100180.38;4978272;28;20385;-83
2022/03/12 05:30:17;;;;;;;4.55;3.20;;;;;;;-2.38;80.85;100183.81;4962277;28;20493;-85
2022/03/12 05:32:53;;;;;;;3.78;2.45;;;;;;;-2.54;80.58;100160.25;4968246;28;20055;-86
2022/03/12 05:35:24;;;;;;;4.38;2.53;;;;;;;-2.50;80.48;100164.63;4961062;28;20066;-87
2022/03/12 05:41:10;;;;;;;5.28;3.03;;;;;;;-2.66;80.98;100135.97;4938984;28;20045;-87
2022/03/12 05:43:47;;;;;;;7.50;3.10;;;;;;;-2.53;81.08;100167.09;5041454;28;20041;-85
2022/03/12 05:46:20;;;;;;;6.80;3.08;;;;;;;-2.61;82.08;100172.78;5041439;28;20081;-86
2022/03/12 05:48:51;;;;;;;8.40;2.90;;;;;;;-2.31;82.20;100251.44;5041247;28;20448;-87
2022/03/12 05:51:44;;;;;;;6.43;2.85;;;;;;;-2.93;81.77;100197.22;5041532;28;20091;-89
2022/03/12 05:54:28;;;;;;;4.25;2.90;;;;;;;-3.52;82.72;100148.19;5041420;28;20049;-90
2022/03/12 05:57:31;;;;;;;;;;;;;;;;;;;;;
2022/03/12 06:00:42;;;;;;;4.82;3.17;;;;;;;-3.67;83.31;100122.03;5040522;28;20338;-89
2022/03/12 06:03:47;;;;;;;5.35;2.92;;;;;;;-3.72;82.57;100103.09;5041574;28;20049;-91
2022/03/12 06:06:30;;;;;;;5.20;2.90;;;;;;;-2.94;82.65;100248.31;5037539;28;20245;-89
2022/03/12 06:09:31;;;;;;;4.47;3.03;;;;;;;-3.00;82.97;100250.63;5040524;28;20061;-87
2022/03/12 06:13:06;;;;;;;5.30;3.08;;;;;;;-3.80;82.89;100107.06;4978620;28;20058;-87
2022/03/12 06:15:55;;;;;;;4.03;2.08;;;;;;;-3.75;83.03;100125.97;4975490;28;20039;-88
2022/03/12 06:22:24;;;;;;;6.43;3.45;;;;;;;-2.75;83.30;100291.63;4916118;29;19987;-90
2022/03/12 06:28:19;;;;;;;4.80;3.20;;;;;;;-3.67;83.51;100150.13;4989166;28;20292;-88
2022/03/12 06:31:28;;;;;;;6.53;3.30;;;;;;;-2.74;83.43;100316.41;5040730;28;20050;-89
2022/03/12 06:34:22;;;;;;;4.88;2.80;;;;;;;-2.85;83.24;100292.09;5033472;28;20108;-88
2022/03/12 06:37:15;;;;;;;6.25;2.72;;;;;;;-3.68;82.90;100140.72;4996690;28;20046;-86
2022/03/12 06:40:25;;;;;;;;;;;;;;;;;;;;;
2022/03/12 06:47:00;;;;;;;5.40;2.88;;;;;;;-2.83;83.90;100336.50;4859975;29;20372;-88
2022/03/12 06:49:32;;;;;;;4.65;2.53;;;;;;;-2.98;83.32;100315.47;4953672;28;20062;-88
2022/03/12 06:52:05;;;;;;;3.33;2.28;;;;;;;-2.76;82.81;100335.94;4989128;28;20089;-82
2022/03/12 06:54:36;;;;;;;3.38;2.53;;;;;;;-2.74;82.76;100321.53;5003372;28;20050;-85
2022/03/12 06:57:20;;;;;;;3.92;2.70;;;;;;;-2.68;82.52;100333.66;5004133;28;20081;-85
2022/03/12 07:03:05;;;;;;;3.65;2.28;;;;;;;-2.69;82.04;100350.72;5001235;28;20097;-84
2022/03/12 07:05:38;;;;;;;4.22;2.88;;;;;;;-2.94;81.87;100338.66;5004474;28;20046;-85
2022/03/12 07:08:14;;;;;;;2.95;2.33;;;;;;;-2.76;81.65;100364.06;5004570;28;20050;-84
2022/03/12 07:10:44;;;;;;;4.45;2.70;;;;;;;-2.75;81.87;100376.03;5004467;28;20049;-87
2022/03/12 07:13:16;;;;;;;3.92;2.63;;;;;;;-3.10;81.83;100332.06;5004937;28;20104;-86
2022/03/12 07:15:47;;;;;;;6.70;4.18;;;;;;;-2.75;82.64;100360.69;5004514;28;20334;-88
2022/03/12 07:18:20;;;;;;;7.25;3.22;;;;;;;-3.07;82.81;100327.09;5004685;28;20057;-86
2022/03/12 07:20:53;;;;;;;10.95;6.68;;;;;;;-2.93;82.91;100377.88;5004761;28;20046;-85
2022/03/12 07:23:24;;;;;;;3.95;2.47;;;;;;;-3.24;83.11;100328.09;5004799;28;20050;-86
2022/03/12 07:26:03;;;;;;;3.67;2.40;;;;;;;-3.05;81.74;100396.16;5004916;28;20114;-85
2022/03/12 07:28:34;;;;;;;7.43;4.57;;;;;;;-3.11;82.39;100355.88;5001643;28;20043;-84
2022/03/12 07:31:07;;;;;;;4.93;3.15;;;;;;;-3.17;82.32;100364.97;5003876;28;20110;-84
2022/03/12 07:33:39;;;;;;;11.00;6.05;;;;;;;-3.10;82.38;100393.41;5004828;28;20664;-85
2022/03/12 07:36:11;;;;;;;7.82;4.55;;;;;;;-3.17;82.07;100388.88;5004752;28;20101;-82
2022/03/12 07:38:43;;;;;;;2.80;2.20;;;;;;;-3.21;81.77;100404.03;5003536;28;20093;-84
2022/03/12 07:41:14;;;;;;;45.78;24.95;;;;;;;-4.05;81.77;100271.97;5004522;28;20062;-84
2022/03/12 07:43:58;;;;;;;25.60;13.70;;;;;;;-3.43;81.97;100381.81;5004575;28;20046;-83
2022/03/12 07:46:31;;;;;;;46.85;25.33;;;;;;;-3.30;82.20;100418.13;5002756;28;20056;-82
2022/03/12 07:49:04;;;;;;;38.17;18.77;;;;;;;-3.68;82.71;100355.22;5017732;28;20061;-81
2022/03/12 07:51:35;;;;;;;57.30;27.33;;;;;;;-3.41;83.22;100405.75;5044494;28;20333;-82
2022/03/12 07:54:07;;;;;;;72.90;36.17;;;;;;;-3.38;82.96;100410.97;5045096;28;20341;-80
2022/03/12 07:56:38;;;;;;;11.35;5.93;;;;;;;-3.54;82.85;100401.81;5044429;28;20048;-82
2022/03/12 07:59:10;;;;;;;13.20;7.55;;;;;;;-3.52;83.38;100434.28;5045684;28;20046;-82
2022/03/12 08:01:40;;;;;;;33.72;16.80;;;;;;;-3.58;83.02;100434.00;5055004;28;20032;-82
2022/03/12 08:04:13;;;;;;;3.42;2.92;;;;;;;-3.62;81.96;100427.03;5059761;28;20056;-82
2022/03/12 08:06:44;;;;;;;3.50;2.53;;;;;;;-3.64;82.07;100438.84;5059209;28;20049;-80
2022/03/12 08:09:15;;;;;;;3.45;2.67;;;;;;;-3.61;81.89;100449.19;5056697;28;20064;-80
2022/03/12 08:11:47;;;;;;;3.70;2.40;;;;;;;-3.85;82.24;100417.47;5057074;28;20064;-81
2022/03/12 08:14:20;;;;;;;3.95;2.40;;;;;;;-3.74;82.56;100449.47;5057254;28;20037;-81
2022/03/12 08:16:52;;;;;;;7.75;4.05;;;;;;;-3.73;83.22;100463.97;5057709;28;20033;-80
2022/03/12 08:19:25;;;;;;;5.38;3.20;;;;;;;-3.82;83.37;100463.56;5057062;28;20361;-81
2022/03/12 08:21:58;;;;;;;4.38;3.30;;;;;;;-3.85;84.78;100453.22;5057404;28;20067;-81
2022/03/12 08:24:29;;;;;;;5.05;2.85;;;;;;;-4.10;85.05;100426.59;5057376;28;20037;-82
2022/03/12 08:27:00;;;;;;;7.35;3.90;;;;;;;-3.89;85.39;100477.75;5049339;28;20049;-81
2022/03/12 08:29:31;;;;;;;3.88;2.97;;;;;;;-4.22;85.75;100436.22;5043445;28;20072;-80
2022/03/12 08:32:03;;;;;;;10.20;4.10;;;;;;;-3.93;86.16;100486.06;5043005;28;20069;-80
2022/03/12 08:34:35;;;;;;;10.98;5.35;;;;;;;-3.92;86.68;100485.25;5038982;28;20045;-80
2022/03/12 08:37:06;;;;;;;8.98;4.43;;;;;;;-4.14;86.58;100473.22;5043230;28;20109;-79
2022/03/12 08:39:38;;;;;;;5.22;3.35;;;;;;;-3.91;86.79;100494.66;5043154;28;20041;-80
2022/03/12 08:42:10;;;;;;;5.68;3.30;;;;;;;-3.91;86.90;100512.53;5043059;28;20053;-80
2022/03/12 08:44:42;;;;;;;8.43;3.10;;;;;;;-3.94;87.25;100520.94;5043248;28;20053;-79
2022/03/12 08:47:19;;;;;;;5.07;3.40;;;;;;;-3.92;87.11;100529.53;5043408;28;20051;-85
2022/03/12 08:49:52;;;;;;;6.10;3.92;;;;;;;-4.17;87.29;100491.81;5042845;28;20061;-84
2022/03/12 08:52:23;;;;;;;5.07;2.70;;;;;;;-3.95;87.64;100539.59;5028497;28;20079;-84
2022/03/12 08:54:54;;;;;;;7.30;3.97;;;;;;;-4.21;87.80;100501.78;5025842;28;20073;-81
2022/03/12 08:57:24;;;;;;;6.35;4.75;;;;;;;-3.96;87.92;100548.06;5042955;28;20053;-80
2022/03/12 09:00:00;;;;;;;6.05;4.63;;;;;;;-4.05;87.57;100542.50;5042630;28;20054;-85
2022/03/12 09:02:31;;;;;;;5.05;3.42;;;;;;;-3.98;87.49;100570.06;5042591;28;20053;-80
2022/03/12 09:05:05;;;;;;;5.15;3.22;;;;;;;-3.93;87.30;100570.31;5022864;28;20105;-81
2022/03/12 09:07:36;;;;;;;3.15;2.13;;;;;;;-3.99;87.02;100553.03;5039935;28;20053;-83
2022/03/12 09:10:08;;;;;;;4.05;3.00;;;;;;;-3.89;87.05;100564.53;5042380;28;20116;-81
2022/03/12 09:12:39;;;;;;;6.97;2.92;;;;;;;-3.94;86.44;100555.81;5042283;28;20108;-81
2022/03/12 09:15:11;;;;;;;5.15;3.38;;;;;;;-3.87;86.48;100567.16;5042263;28;20068;-80
2022/03/12 09:17:43;;;;;;;10.55;3.83;;;;;;;-3.88;85.89;100570.53;5037355;28;20045;-80
2022/03/12 09:20:16;;;;;;;5.22;3.20;;;;;;;-4.32;85.50;100501.25;5032506;28;20053;-80
2022/03/12 09:22:47;;;;;;;4.50;2.78;;;;;;;-3.91;84.89;100587.44;5042606;28;20054;-80
2022/03/12 09:25:26;;;;;;;4.22;2.85;;;;;;;-3.91;85.24;100592.53;5025117;28;20077;-86
2022/03/12 09:27:59;;;;;;;4.25;2.95;;;;;;;-4.17;84.69;100576.00;5023254;28;20048;-85
2022/03/12 09:30:30;;;;;;;6.30;2.83;;;;;;;-3.87;84.90;100598.66;5038912;28;20053;-86
2022/03/12 09:33:04;;;;;;;5.13;3.05;;;;;;;-3.87;84.13;100602.88;5043728;28;20080;-87
2022/03/12 09:35:40;;;;;;;4.65;2.60;;;;;;;-3.87;84.49;100605.44;5043892;28;20108;-86
2022/03/12 09:38:16;;;;;;;3.97;2.80;;;;;;;-3.91;84.31;100618.06;5054985;28;20056;-85
2022/03/12 09:41:06;;;;;;;;;;;;;;;;;;;;;
2022/03/12 09:43:47;;;;;;;5.15;3.13;;;;;;;-4.72;84.54;100524.00;5053895;28;20053;-84
2022/03/12 09:46:18;;;;;;;5.68;3.35;;;;;;;-3.96;84.54;100632.28;5055629;28;20036;-84
2022/03/12 09:48:49;;;;;;;5.32;3.80;;;;;;;-4.06;85.02;100630.09;5055189;28;20061;-83
2022/03/12 09:51:22;;;;;;;5.97;3.42;;;;;;;-4.18;85.17;100629.50;5052540;28;20071;-84
2022/03/12 09:53:53;;;;;;;3.45;2.75;;;;;;;-4.06;84.93;100647.97;5054022;28;20037;-84
2022/03/12 09:56:24;;;;;;;5.53;3.53;;;;;;;-4.08;85.35;100659.78;5055212;28;20041;-84
2022/03/12 09:58:56;;;;;;;5.00;3.22;;;;;;;-4.12;85.26;100662.97;5055358;28;20029;-83
2022/03/12 10:01:27;;;;;;;5.43;2.97;;;;;;;-4.13;85.58;100671.44;5051589;28;20037;-79
2022/03/12 10:03:58;;;;;;;6.85;3.92;;;;;;;-4.22;85.93;100650.56;5041703;28;20107;-80
2022/03/12 10:06:31;;;;;;;4.93;3.20;;;;;;;-4.29;86.20;100654.50;5041986;28;20077;-80
2022/03/12 10:09:03;;;;;;;6.35;3.83;;;;;;;-4.15;86.79;100667.94;5041896;28;20405;-79
2022/03/12 10:11:35;;;;;;;9.93;4.15;;;;;;;-4.15;86.63;100686.66;5031365;28;20104;-79
2022/03/12 10:14:08;;;;;;;6.38;3.97;;;;;;;-4.26;86.67;100661.44;5041842;28;20092;-78
2022/03/12 10:16:39;;;;;;;6.32;3.40;;;;;;;-4.18;86.91;100683.09;5041837;28;20085;-79
2022/03/12 10:19:09;;;;;;;9.38;4.25;;;;;;;-4.17;87.24;100689.94;5042895;28;20041;-80
2022/03/12 10:21:45;;;;;;;8.48;4.63;;;;;;;-4.31;87.35;100665.44;5045650;28;20215;-79
2022/03/12 10:24:17;;;;;;;11.93;5.88;;;;;;;-4.32;87.47;100669.66;5039604;28;20092;-77
2022/03/12 10:26:48;;;;;;;8.85;4.95;;;;;;;-4.18;88.02;100695.84;5044486;28;20049;-77
2022/03/12 10:29:19;;;;;;;10.77;4.93;;;;;;;-4.23;87.81;100694.75;5043404;28;20133;-77
2022/03/12 10:31:50;;;;;;;8.85;4.00;;;;;;;-4.15;87.56;100693.44;5044640;28;20330;-76
2022/03/12 10:34:24;;;;;;;9.82;3.83;;;;;;;-4.20;88.01;100685.56;5044890;28;20411;-77
2022/03/12 10:36:58;;;;;;;8.27;4.05;;;;;;;-4.10;87.65;100717.53;5044477;28;20056;-78
2022/03/12 10:39:34;;;;;;;7.47;4.15;;;;;;;-4.11;87.43;100715.78;5042841;28;20049;-78
2022/03/12 10:42:07;;;;;;;6.22;3.67;;;;;;;-4.65;87.46;100636.56;5044968;28;20053;-77
2022/03/12 10:44:39;;;;;;;7.18;4.10;;;;;;;-4.14;87.58;100725.84;5044870;28;20077;-77
2022/03/12 10:47:20;;;;;;;6.10;3.15;;;;;;;-4.10;87.26;100727.72;5044985;28;20052;-77
2022/03/12 10:49:58;;;;;;;6.13;3.65;;;;;;;-4.12;87.76;100721.66;5044404;28;20357;-77
2022/03/12 10:52:32;;;;;;;7.50;3.53;;;;;;;-4.09;87.79;100729.50;5045002;28;20077;-77
2022/03/12 10:55:09;;;;;;;7.28;2.83;;;;;;;-4.10;87.96;100735.38;5044914;28;20056;-77
2022/03/12 10:57:40;;;;;;;6.80;4.03;;;;;;;-4.07;88.04;100732.97;5044621;28;20152;-77
2022/03/12 11:00:12;;;;;;;6.78;3.58;;;;;;;-4.06;87.94;100732.19;5044619;28;20076;-77
2022/03/12 11:02:43;;;;;;;7.38;3.72;;;;;;;-4.05;87.46;100736.50;5044454;28;20041;-77
2022/03/12 11:05:14;;;;;;;5.07;2.78;;;;;;;-4.06;87.19;100734.75;5024956;28;20061;-77
2022/03/12 11:07:47;;;;;;;6.32;3.05;;;;;;;-4.03;87.34;100740.00;5041237;28;20045;-77
2022/03/12 11:10:27;;;;;;;6.65;3.72;;;;;;;-4.04;86.76;100740.81;5044693;28;20104;-77
2022/03/12 11:12:57;;;;;;;4.25;3.10;;;;;;;-4.00;87.07;100744.38;5044217;28;20048;-77
2022/03/12 11:15:28;;;;;;;6.63;3.30;;;;;;;-3.98;86.86;100743.66;5044506;28;20041;-77
2022/03/12 11:17:59;;;;;;;6.85;3.38;;;;;;;-4.01;86.86;100743.50;5043912;28;20044;-78
2022/03/12 11:20:35;;;;;;;6.05;3.22;;;;;;;-4.03;86.61;100741.69;5044284;28;20049;-77
2022/03/12 11:23:16;;;;;;;10.00;5.25;;;;;;;-4.03;86.77;100750.22;5044021;28;20261;-77
2022/03/12 11:25:56;;;;;;;11.23;3.85;;;;;;;-4.15;86.39;100740.25;5040182;28;20049;-78
2022/03/12 11:28:29;;;;;;;6.80;4.20;;;;;;;-4.35;85.55;100716.28;5034253;28;20261;-76
2022/03/12 11:30:59;;;;;;;6.70;3.35;;;;;;;-4.10;85.50;100753.25;5043669;28;20085;-77
2022/03/12 11:33:30;;;;;;;6.38;3.20;;;;;;;-4.07;85.23;100763.59;5043679;28;20067;-77
2022/03/12 11:36:02;;;;;;;6.70;3.58;;;;;;;-4.02;84.85;100766.41;5043588;28;20105;-77
2022/03/12 11:38:35;;;;;;;7.60;3.85;;;;;;;-4.05;84.63;100762.00;5043764;28;20113;-75
2022/03/12 11:41:08;;;;;;;7.82;3.50;;;;;;;-4.15;84.71;100757.25;5039678;28;20256;-75
2022/03/12 11:43:41;;;;;;;4.13;3.30;;;;;;;-4.06;84.78;100769.63;5043613;28;20088;-76
2022/03/12 11:46:14;;;;;;;13.10;5.53;;;;;;;-4.08;84.89;100771.22;5043484;28;20077;-75
2022/03/12 11:48:44;;;;;;;8.35;4.88;;;;;;;-4.28;85.09;100748.09;5042882;28;20457;-75
2022/03/12 11:51:23;;;;;;;6.13;3.65;;;;;;;-4.47;85.71;100733.50;5042727;28;20116;-76
2022/03/12 11:53:56;;;;;;;7.72;3.40;;;;;;;-4.14;85.64;100787.09;5042309;28;20053;-76
2022/03/12 11:56:27;;;;;;;15.02;5.30;;;;;;;-4.13;85.72;100783.72;5043199;28;20083;-78
2022/03/12 11:58:58;;;;;;;7.60;3.97;;;;;;;-4.16;85.83;100781.03;5039683;28;20041;-79
2022/03/12 12:01:37;;;;;;;4.28;3.13;;;;;;;-4.13;85.68;100804.16;5042760;28;20061;-78
2022/03/12 12:04:09;;;;;;;6.72;2.60;;;;;;;-4.13;85.57;100799.03;5039589;28;20091;-78
2022/03/12 12:06:40;;;;;;;4.20;2.70;;;;;;;-4.10;85.22;100799.19;5043583;28;20360;-77
2022/03/12 12:09:12;;;;;;;7.03;3.08;;;;;;;-4.24;85.15;100784.84;5043711;28;20081;-76
2022/03/12 12:11:43;;;;;;;7.00;2.95;;;;;;;-4.12;85.38;100808.44;5043769;28;20116;-76
2022/03/12 12:14:14;;;;;;;5.95;2.80;;;;;;;-4.12;85.16;100808.44;5043422;28;20045;-76
2022/03/12 12:16:45;;;;;;;3.35;2.30;;;;;;;-4.13;85.45;100819.47;5043396;28;20098;-76
2022/03/12 12:19:17;;;;;;;2.50;2.00;;;;;;;-4.13;85.60;100819.47;5041844;28;20139;-77
2022/03/12 12:21:48;;;;;;;3.03;2.42;;;;;;;-4.25;86.09;100808.63;5042019;28;20049;-77
2022/03/12 12:24:31;;;;;;;4.60;2.80;;;;;;;-4.18;86.15;100813.25;5042197;28;20113;-76